Terminal Aerodrome Forecast
Issued by NWS Memphis, TN

Home | Current Version | Previous Version | Text Only | Print | Product List | Glossary On
Versions: 1 2 3 4 5 6 7 8 9 10 11 12 13 14
000
FTUS44 KMEG 222300
TAFMKL
TAF
KMKL 222324Z 2300/2324 20003KT P6SM SCT250
      TEMPO 2310/2313 5SM BR
     FM231400 25006KT P6SM FEW050 SCT250=

USA.gov is the U.S. government's official web portal to all federal, state and local government web resources and services.